Time;durP1;ratioP1;P1;durP2;ratioP2;P2;SDS_P1;SDS_P2;PMS_P1;PMS_P2;Temp;Humidity;BMP_temperature;BMP_pressure;BME280_temperature;BME280_humidity;BME280_pressure;Samples;Min_cycle;Max_cycle;Signal;HPM_P1;HPM_P2
2023/09/26 00:01:05;;;;;;;;;1.67;1.67;;;;;26.58;42.24;101872.59;5055610;28;45386;-74
2023/09/26 00:03:30;;;;;;;;;1.67;1.67;;;;;26.59;42.82;101883.09;5055171;28;46146;-74
2023/09/26 00:05:56;;;;;;;;;2.67;1.00;;;;;26.54;42.67;101866.00;5055557;28;45468;-74
2023/09/26 00:08:22;;;;;;;;;2.00;2.00;;;;;26.46;42.35;101857.09;5055537;28;45418;-75
2023/09/26 00:10:47;;;;;;;;;3.67;2.00;;;;;26.51;42.64;101861.84;5055071;28;45398;-75
2023/09/26 00:13:14;;;;;;;;;2.00;2.00;;;;;26.57;42.39;101868.28;5055192;28;47321;-73
2023/09/26 00:15:39;;;;;;;;;2.00;2.00;;;;;26.48;42.59;101851.56;5055453;28;45482;-75
2023/09/26 00:18:08;;;;;;;;;4.00;4.00;;;;;26.41;42.58;101846.09;5055332;28;45321;-74
2023/09/26 00:20:38;;;;;;;;;3.00;3.00;;;;;26.56;42.30;101866.63;5055340;28;45668;-74
2023/09/26 00:23:04;;;;;;;;;3.00;3.00;;;;;26.53;42.35;101859.81;5055053;28;46958;-74
2023/09/26 00:25:30;;;;;;;;;4.00;2.00;;;;;26.49;42.76;101845.22;5054621;28;45466;-74
2023/09/26 00:27:56;;;;;;;;;2.00;2.00;;;;;26.47;42.67;101833.88;5055381;28;45308;-74
2023/09/26 00:30:23;;;;;;;;;2.00;1.00;;;;;26.57;42.66;101852.28;5056198;28;45276;-75
2023/09/26 00:32:48;;;;;;;;;2.33;2.33;;;;;26.51;42.31;101845.84;5058524;28;45438;-74
2023/09/26 00:35:14;;;;;;;;;2.67;2.67;;;;;26.57;42.60;101858.41;5058582;28;45360;-75
2023/09/26 00:37:40;;;;;;;;;1.33;1.33;;;;;26.54;42.16;101863.31;5058792;28;45623;-74
2023/09/26 00:40:18;;;;;;;;;2.33;2.33;;;;;26.56;42.87;101866.63;5058310;28;45504;-75
2023/09/26 00:42:44;;;;;;;;;2.00;2.00;;;;;26.54;41.97;101866.00;5058172;28;47245;-74
2023/09/26 00:45:11;;;;;;;;;2.00;2.00;;;;;26.57;42.09;101873.63;5058372;28;45463;-74
2023/09/26 00:47:37;;;;;;;;;1.33;1.33;;;;;26.59;42.50;101877.78;5058430;28;45359;-75
2023/09/26 00:50:04;;;;;;;;;2.00;2.00;;;;;26.59;42.72;101871.59;5058480;28;45349;-75
2023/09/26 00:52:30;;;;;;;;;1.00;1.00;;;;;26.59;42.84;101871.59;5058292;28;46124;-76
2023/09/26 00:54:57;;;;;;;;;4.00;2.67;;;;;26.48;42.22;101848.88;5057779;28;45305;-75
2023/09/26 00:57:23;;;;;;;;;2.33;2.33;;;;;26.57;42.50;101852.28;5058307;28;45498;-75
2023/09/26 00:59:48;;;;;;;;;2.00;2.00;;;;;26.54;42.69;101855.31;5058290;28;45386;-75
2023/09/26 01:02:14;;;;;;;;;3.00;3.00;;;;;26.56;42.22;101858.63;5058081;28;46183;-75
2023/09/26 01:04:39;;;;;;;;;3.33;2.00;;;;;26.55;42.24;101848.94;5057960;28;45466;-76
2023/09/26 01:07:05;;;;;;;;;2.67;2.67;;;;;26.46;42.30;101835.75;5058325;28;45289;-76
2023/09/26 01:09:30;;;;;;;;;3.00;1.00;;;;;26.53;42.81;101841.13;5057788;28;45365;-75
2023/09/26 01:11:56;;;;;;;;;3.00;3.00;;;;;26.37;42.91;101815.47;5058067;28;45634;-75
2023/09/26 01:14:21;;;;;;;;;2.00;2.00;;;;;26.52;42.84;101834.13;5058058;28;45379;-75
2023/09/26 01:16:56;;;;;;;;;7.00;4.00;;;;;26.49;42.71;101826.53;5058101;28;45371;-75
2023/09/26 01:19:21;;;;;;;;;2.00;2.00;;;;;26.51;42.19;101836.00;5058168;28;45304;-75
2023/09/26 01:21:46;;;;;;;;;2.00;2.00;;;;;26.52;42.71;101829.63;5057507;28;46323;-75
2023/09/26 01:24:13;;;;;;;;;2.67;2.67;;;;;26.52;42.61;101826.97;5057617;28;45737;-76
2023/09/26 01:26:38;;;;;;;;;2.00;2.00;;;;;26.49;42.55;101814.00;5057785;28;45334;-76
2023/09/26 01:29:06;;;;;;;;;2.00;2.00;;;;;26.53;42.91;101827.81;5057878;28;45529;-75
2023/09/26 01:31:36;;;;;;;;;1.67;1.67;;;;;26.43;42.54;101814.72;5057607;28;47205;-76
2023/09/26 01:34:02;;;;;;;;;2.67;2.67;;;;;26.42;42.32;101805.06;5057663;28;45316;-75
2023/09/26 01:36:28;;;;;;;;;2.00;1.00;;;;;26.47;42.22;101818.69;5057663;28;45407;-76
2023/09/26 01:38:56;;;;;;;;;2.00;2.00;;;;;26.49;42.72;101816.66;5055997;28;45443;-75
2023/09/26 01:41:23;;;;;;;;;2.00;2.00;;;;;26.53;42.59;101822.47;5056670;28;47165;-75
2023/09/26 01:43:48;;;;;;;;;2.00;2.00;;;;;26.57;42.44;101825.59;5056975;28;45320;-75
2023/09/26 01:46:13;;;;;;;;;1.67;1.67;;;;;26.46;42.28;101814.38;5057525;28;45704;-76
2023/09/26 01:48:39;;;;;;;;;1.33;1.33;;;;;26.55;42.82;101820.44;5057660;28;45348;-76
2023/09/26 01:51:05;;;;;;;;;4.00;1.00;;;;;26.55;42.74;101836.44;5057354;28;45216;-75
2023/09/26 01:53:30;;;;;;;;;2.00;2.00;;;;;26.55;42.61;101839.09;5056991;28;45244;-76
2023/09/26 01:56:01;;;;;;;;;1.00;1.00;;;;;26.54;42.41;101829.47;5057532;28;45259;-76
2023/09/26 01:58:27;;;;;;;;;2.67;2.67;;;;;26.52;42.59;101829.63;5057521;28;45459;-76
2023/09/26 02:00:52;;;;;;;;;3.00;1.00;;;;;26.45;42.63;101819.91;5057338;28;46330;-76
2023/09/26 02:03:19;;;;;;;;;1.67;1.67;;;;;26.53;42.67;101827.81;5057137;28;45360;-76
2023/09/26 02:05:45;;;;;;;;;3.00;3.00;;;;;26.53;42.21;101827.81;5057364;28;45296;-75
2023/09/26 02:08:10;;;;;;;;;3.00;2.00;;;;;26.54;42.37;101816.13;5056840;28;45600;-75
2023/09/26 02:10:35;;;;;;;;;2.00;2.00;;;;;26.50;42.72;101810.31;5057109;28;45477;-75
2023/09/26 02:13:01;;;;;;;;;1.00;1.00;;;;;26.49;42.77;101797.19;5057188;28;45344;-75
2023/09/26 02:15:26;;;;;;;;;3.00;2.00;;;;;26.54;42.56;101804.63;5056702;28;45292;-75
2023/09/26 02:17:51;;;;;;;;;2.00;2.00;;;;;26.37;42.61;101776.28;5057154;28;45612;-75
2023/09/26 02:20:19;;;;;;;;;2.00;2.00;;;;;26.54;42.69;101804.63;5056993;28;45394;-76
2023/09/26 02:22:47;;;;;;;;;3.33;1.00;;;;;26.52;42.72;101802.13;5056598;28;45441;-75
2023/09/26 02:25:14;;;;;;;;;1.00;1.00;;;;;26.44;42.51;101784.38;5057070;28;45283;-75
2023/09/26 02:27:41;;;;;;;;;2.00;2.00;;;;;26.50;42.65;101796.97;5056787;28;45216;-75
2023/09/26 02:30:08;;;;;;;;;2.00;2.00;;;;;26.39;42.41;101776.06;5056725;28;46343;-75
2023/09/26 02:32:34;;;;;;;;;1.00;1.00;;;;;26.45;42.15;101782.53;5056541;28;45372;-75
2023/09/26 02:35:00;;;;;;;;;1.00;1.00;;;;;26.43;42.67;101782.72;5056413;28;45521;-76
2023/09/26 02:37:25;;;;;;;;;2.00;2.00;;;;;26.43;42.53;101773.88;5056751;28;45426;-75
2023/09/26 02:39:50;;;;;;;;;1.00;1.00;;;;;26.47;42.33;101778.66;5056632;28;47062;-75
2023/09/26 02:42:16;;;;;;;;;2.00;1.33;;;;;26.50;42.77;101778.31;5056509;28;45497;-76
2023/09/26 02:44:41;;;;;;;;;2.00;2.00;;;;;26.50;42.34;101775.63;5056678;28;45396;-75
2023/09/26 02:47:06;;;;;;;;;1.33;1.33;;;;;26.48;42.72;101772.34;5055351;28;45449;-75
2023/09/26 02:49:32;;;;;;;;;1.00;1.00;;;;;26.43;42.74;101764.03;5056008;28;47351;-75
2023/09/26 02:51:57;;;;;;;;;2.00;2.00;;;;;26.04;42.29;101704.69;5055147;28;45326;-75
2023/09/26 02:54:23;;;;;;;;;2.00;2.00;;;;;26.42;42.68;101759.69;5056143;28;45355;-76
2023/09/26 02:56:48;;;;;;;;;1.33;1.33;;;;;26.54;43.06;101776.09;5056412;28;45379;-76
2023/09/26 02:59:13;;;;;;;;;2.00;2.00;;;;;26.54;42.34;101772.59;5056388;28;45374;-75
2023/09/26 03:01:39;;;;;;;;;3.00;1.67;;;;;26.33;42.02;101737.66;5056271;28;45413;-75
2023/09/26 03:04:05;;;;;;;;;2.00;2.00;;;;;26.50;42.55;101764.13;5055991;28;45391;-72
2023/09/26 03:06:30;;;;;;;;;3.00;3.00;;;;;26.52;42.61;101757.59;5056349;28;45324;-75
2023/09/26 03:08:56;;;;;;;;;4.00;3.00;;;;;26.47;42.74;101743.16;5056109;28;47216;-75
2023/09/26 03:11:21;;;;;;;;;1.67;1.67;;;;;26.52;42.79;101744.25;5056232;28;45310;-75
2023/09/26 03:13:46;;;;;;;;;2.00;2.00;;;;;26.44;42.44;101730.22;5056374;28;45344;-75
2023/09/26 03:16:14;;;;;;;;;2.00;2.00;;;;;26.50;42.57;101746.28;5056091;28;45395;-75
2023/09/26 03:18:40;;;;;;;;;2.33;2.00;;;;;26.50;42.21;101735.59;5055793;28;46321;-75
2023/09/26 03:21:06;;;;;;;;;3.00;1.00;;;;;26.41;42.45;101728.72;5055783;28;45417;-75
2023/09/26 03:23:32;;;;;;;;;1.67;1.67;;;;;26.49;42.27;101744.63;5056006;28;45359;-75
2023/09/26 03:25:57;;;;;;;;;3.00;1.33;;;;;26.40;42.54;101737.72;5056092;28;45392;-75
2023/09/26 03:28:23;;;;;;;;;1.33;1.33;;;;;26.49;42.75;101749.16;5055723;28;46142;-72
2023/09/26 03:30:48;;;;;;;;;3.33;1.67;;;;;26.46;42.70;101739.69;5055854;28;45461;-76
2023/09/26 03:33:14;;;;;;;;;1.67;1.67;;;;;26.49;43.01;101743.81;5055575;28;45265;-75
2023/09/26 03:35:39;;;;;;;;;1.00;1.00;;;;;26.31;42.59;101715.66;5055725;28;45317;-76
2023/09/26 03:38:05;;;;;;;;;3.67;1.33;;;;;26.49;42.20;101739.28;5055875;28;45372;-75
2023/09/26 03:40:31;;;;;;;;;1.67;1.67;;;;;26.34;42.62;101712.63;5055798;28;45350;-76
2023/09/26 03:42:56;;;;;;;;;2.00;2.00;;;;;26.45;42.50;101726.50;5055716;28;45384;-75
2023/09/26 03:45:22;;;;;;;;;1.67;1.67;;;;;26.48;42.79;101726.13;5055841;28;45426;-75
2023/09/26 03:47:48;;;;;;;;;2.00;2.00;;;;;26.52;42.68;101735.41;5055383;28;47005;-75
2023/09/26 03:50:13;;;;;;;;;2.67;2.67;;;;;26.49;42.71;101728.59;5055782;28;45370;-75
2023/09/26 03:52:39;;;;;;;;;1.00;1.00;;;;;26.44;42.21;101723.00;5055744;28;45372;-76
2023/09/26 03:55:05;;;;;;;;;1.33;1.33;;;;;26.52;42.21;101735.41;5055599;28;45460;-74
2023/09/26 03:57:31;;;;;;;;;1.00;1.00;;;;;26.47;42.35;101724.47;5055522;28;46359;-76
2023/09/26 03:59:56;;;;;;;;;1.00;1.00;;;;;26.52;42.10;101724.72;5055404;28;45516;-76
2023/09/26 04:02:22;;;;;;;;;1.00;1.00;;;;;26.52;42.66;101716.72;5055197;28;45471;-75
2023/09/26 04:04:47;;;;;;;;;2.00;2.00;;;;;26.50;42.50;101711.59;5055565;28;45401;-75
2023/09/26 04:07:14;;;;;;;;;2.00;2.00;;;;;26.50;42.14;101719.59;5059058;28;46026;-75
2023/09/26 04:09:40;;;;;;;;;2.00;2.00;;;;;26.50;42.61;101703.59;5059040;28;45395;-75
2023/09/26 04:12:06;;;;;;;;;0.67;0.67;;;;;26.40;42.14;101682.53;5058879;28;45328;-76
2023/09/26 04:14:31;;;;;;;;;1.00;1.00;;;;;26.18;42.83;101652.31;5059126;28;45649;-75
2023/09/26 04:16:57;;;;;;;;;2.00;2.00;;;;;26.50;42.46;101713.44;5058468;28;45329;-76
2023/09/26 04:19:22;;;;;;;;;1.00;1.00;;;;;26.45;42.75;101706.00;5059032;28;45370;-76
2023/09/26 04:21:48;;;;;;;;;2.00;2.00;;;;;26.50;42.77;101708.09;5059030;28;45509;-75
2023/09/26 04:24:14;;;;;;;;;2.33;1.33;;;;;26.40;42.38;101689.69;5059015;28;45292;-76
2023/09/26 04:26:40;;;;;;;;;1.00;1.00;;;;;26.49;42.21;101703.78;5058668;28;46446;-75
2023/09/26 04:29:06;;;;;;;;;1.00;1.00;;;;;26.47;42.70;101698.63;5058692;28;45491;-75
2023/09/26 04:31:31;;;;;;;;;2.33;2.33;;;;;26.51;42.65;101701.75;5058391;28;45331;-76
2023/09/26 04:33:57;;;;;;;;;3.00;1.00;;;;;26.50;42.73;101692.06;5058644;28;45400;-76
2023/09/26 04:36:23;;;;;;;;;1.67;1.67;;;;;26.43;42.57;101684.00;5058564;28;46937;-76
2023/09/26 04:38:48;;;;;;;;;2.00;1.00;;;;;26.48;42.29;101684.28;5058488;28;45423;-75
2023/09/26 04:41:13;;;;;;;;;1.00;1.00;;;;;26.27;42.59;101645.88;5058712;28;45304;-76
2023/09/26 04:43:39;;;;;;;;;1.00;1.00;;;;;26.49;42.42;101685.09;5058503;28;45426;-75
2023/09/26 04:46:12;;;;;;;;;1.00;1.00;;;;;26.37;42.37;101677.56;5058016;28;45974;-75
2023/09/26 04:48:39;;;;;;;;;1.33;1.33;;;;;26.46;42.30;101683.66;5058589;28;46037;-75
2023/09/26 04:51:08;;;;;;;;;1.00;1.00;;;;;26.42;42.61;101674.31;5058367;28;45406;-75
2023/09/26 04:53:35;;;;;;;;;1.33;1.33;;;;;26.46;42.68;101680.16;5058321;28;45411;-75
2023/09/26 04:56:04;;;;;;;;;1.00;1.00;;;;;26.48;42.41;101688.78;5056751;28;46145;-75
2023/09/26 04:58:30;;;;;;;;;2.00;2.00;;;;;26.47;42.44;101687.13;5058193;28;45312;-75
2023/09/26 05:00:56;;;;;;;;;2.00;1.33;;;;;26.49;42.72;101693.13;5057904;28;45249;-75
2023/09/26 05:03:22;;;;;;;;;3.00;1.67;;;;;26.48;42.46;101686.13;5058191;28;45320;-75
2023/09/26 05:05:47;;;;;;;;;1.00;1.00;;;;;26.49;42.56;101693.91;5057991;28;45327;-75
2023/09/26 05:08:13;;;;;;;;;2.33;1.00;;;;;26.50;42.34;101690.25;5058170;28;45272;-76
2023/09/26 05:10:38;;;;;;;;;1.67;1.67;;;;;26.43;42.24;101683.16;5058264;28;45281;-75
2023/09/26 05:13:05;;;;;;;;;3.00;1.00;;;;;26.49;42.20;101691.25;5058279;28;45345;-75
2023/09/26 05:15:33;;;;;;;;;1.00;1.00;;;;;26.47;42.19;101685.28;5056270;28;48233;-75
2023/09/26 05:17:58;;;;;;;;;1.00;1.00;;;;;26.43;42.67;101673.31;5049947;28;45533;-76
2023/09/26 05:20:24;;;;;;;;;1.00;1.00;;;;;26.49;42.50;101679.78;5045066;28;45448;-75
2023/09/26 05:22:50;;;;;;;;;1.33;1.33;;;;;26.43;42.66;101677.81;5039935;28;45452;-75
2023/09/26 05:25:15;;;;;;;;;4.00;3.00;;;;;26.34;41.97;101656.59;5042698;28;46051;-75
2023/09/26 05:27:43;;;;;;;;;3.33;2.33;;;;;26.40;42.63;101679.03;5046944;28;45598;-75
2023/09/26 05:30:09;;;;;;;;;3.67;3.67;;;;;26.18;42.44;101650.50;5042385;28;45343;-77
2023/09/26 05:32:35;;;;;;;;;7.00;4.00;;;;;26.22;42.48;101666.13;5054138;28;45669;-77
2023/09/26 05:35:01;;;;;;;;;4.00;2.67;;;;;26.20;42.51;101660.16;5049810;28;46118;-78
2023/09/26 05:37:27;;;;;;;;;4.67;3.00;;;;;26.27;42.56;101669.88;5046807;28;45470;-77
2023/09/26 05:39:52;;;;;;;;;4.67;3.33;;;;;26.24;42.28;101677.41;5040100;28;45312;-77
2023/09/26 05:42:18;;;;;;;;;2.00;2.00;;;;;26.20;42.18;101665.50;5044087;28;45340;-78
2023/09/26 05:44:43;;;;;;;;;2.67;2.00;;;;;26.26;42.33;101676.22;5056816;28;46150;-79
2023/09/26 05:47:08;;;;;;;;;3.33;2.00;;;;;26.17;42.83;101670.19;5057076;28;45431;-77
2023/09/26 05:49:34;;;;;;;;;2.33;2.33;;;;;26.13;43.02;101652.06;5057474;28;45335;-78
2023/09/26 05:51:59;;;;;;;;;2.00;1.00;;;;;26.28;42.33;101674.19;5057489;28;45342;-77
2023/09/26 05:54:25;;;;;;;;;2.00;2.00;;;;;26.10;42.06;101636.47;5057327;28;46040;-78
2023/09/26 05:56:50;;;;;;;;;2.00;2.00;;;;;26.28;42.57;101663.50;5056006;28;45345;-77
2023/09/26 05:59:15;;;;;;;;;3.33;1.00;;;;;26.25;42.53;101663.91;5057091;28;45346;-77
2023/09/26 06:01:41;;;;;;;;;2.33;2.00;;;;;26.25;42.26;101653.25;5057364;28;45349;-77
2023/09/26 06:04:06;;;;;;;;;2.00;2.00;;;;;26.35;42.51;101671.59;5057056;28;47038;-77
2023/09/26 06:06:34;;;;;;;;;1.00;1.00;;;;;26.32;42.91;101665.81;5057270;28;45208;-78
2023/09/26 06:09:00;;;;;;;;;1.67;1.67;;;;;26.33;42.16;101662.13;5057358;28;45614;-77
2023/09/26 06:11:25;;;;;;;;;2.33;1.33;;;;;26.23;42.16;101649.13;5057026;28;45806;-75
2023/09/26 06:13:52;;;;;;;;;2.67;1.67;;;;;26.40;42.09;101679.03;5056699;28;46301;-76
2023/09/26 06:16:21;;;;;;;;;2.00;2.00;;;;;26.37;42.69;101682.06;5057134;28;45397;-74
2023/09/26 06:18:47;;;;;;;;;3.00;2.00;;;;;26.39;42.06;101688.03;5056944;28;45240;-77
2023/09/26 06:21:14;;;;;;;;;1.33;1.33;;;;;26.36;42.29;101689.25;5056930;28;45229;-74
2023/09/26 06:23:40;;;;;;;;;2.00;2.00;;;;;26.38;42.46;101695.22;5056751;28;47728;-79
2023/09/26 06:26:06;;;;;;;;;2.00;2.00;;;;;26.39;42.13;101698.72;5055730;28;45451;-82
2023/09/26 06:28:32;;;;;;;;;1.00;1.00;;;;;26.39;42.62;101691.53;5055845;28;45323;-83
2023/09/26 06:31:04;;;;;;;;;1.67;1.67;;;;;26.33;42.30;101686.97;5056549;28;45533;-83
2023/09/26 06:33:29;;;;;;;;;2.00;2.00;;;;;26.40;42.26;101690.53;5056697;28;45604;-83
2023/09/26 06:35:55;;;;;;;;;2.00;2.00;;;;;26.31;42.16;101659.63;5056642;28;45482;-83
2023/09/26 06:38:20;;;;;;;;;2.00;2.00;;;;;26.38;42.80;101673.91;5056994;28;45428;-83
2023/09/26 06:40:45;;;;;;;;;1.33;1.33;;;;;26.41;42.44;101678.03;5056936;28;45494;-83
2023/09/26 06:43:11;;;;;;;;;0.00;0.00;;;;;26.40;42.09;101677.19;5055545;28;46214;-83
2023/09/26 06:45:39;;;;;;;;;1.00;1.00;;;;;26.32;42.80;101666.63;5056744;28;45470;-83
2023/09/26 06:48:05;;;;;;;;;2.67;1.00;;;;;26.43;42.26;101689.31;5056977;28;45373;-83
2023/09/26 06:50:30;;;;;;;;;4.00;2.00;;;;;26.38;42.72;101665.88;5056882;28;45429;-83
2023/09/26 06:52:56;;;;;;;;;1.67;1.67;;;;;26.38;42.58;101675.72;5055017;28;47876;-83
2023/09/26 06:55:21;;;;;;;;;3.67;2.00;;;;;26.36;42.19;101675.09;5056749;28;45502;-83
2023/09/26 06:57:46;;;;;;;;;2.00;2.00;;;;;26.42;42.67;101693.00;5056564;28;45392;-84
2023/09/26 07:00:12;;;;;;;;;2.00;2.00;;;;;26.43;42.21;101699.16;5056620;28;45352;-83
2023/09/26 07:02:41;;;;;;;;;1.00;1.00;;;;;26.43;42.51;101702.66;5056376;28;46092;-83
2023/09/26 07:05:07;;;;;;;;;1.67;1.67;;;;;26.39;42.62;101691.53;5056301;28;45359;-84
2023/09/26 07:07:34;;;;;;;;;1.33;1.33;;;;;26.38;42.55;101695.22;5056509;28;45501;-83
2023/09/26 07:09:59;;;;;;;;;1.00;1.00;;;;;26.35;42.33;101698.28;5056510;28;45368;-83
2023/09/26 07:12:26;;;;;;;;;1.33;1.33;;;;;26.40;42.18;101701.19;5055856;28;47377;-83
2023/09/26 07:14:56;;;;;;;;;2.00;2.00;;;;;26.45;42.38;101708.66;5056496;28;45398;-83
2023/09/26 07:17:24;;;;;;;;;2.67;2.00;;;;;26.46;42.87;101707.66;5056783;28;45449;-83
2023/09/26 07:19:50;;;;;;;;;2.00;2.00;;;;;26.43;42.69;101702.66;5056466;28;45430;-83
2023/09/26 07:22:15;;;;;;;;;2.00;2.00;;;;;26.23;42.63;101663.25;5056320;28;45450;-83
2023/09/26 07:24:41;;;;;;;;;2.00;2.00;;;;;26.50;42.30;101708.09;5056271;28;45434;-82
2023/09/26 07:27:09;;;;;;;;;2.00;2.00;;;;;26.41;42.29;101688.69;5056114;28;45451;-83
2023/09/26 07:29:35;;;;;;;;;1.00;1.00;;;;;26.26;42.21;101656.72;5056707;28;45250;-83
2023/09/26 07:32:00;;;;;;;;;2.00;2.00;;;;;26.43;42.53;101685.81;5055856;28;45395;-83
2023/09/26 07:34:25;;;;;;;;;2.33;1.33;;;;;26.54;42.16;101713.88;5055934;28;45350;-83
2023/09/26 07:36:51;;;;;;;;;2.00;2.00;;;;;26.56;42.15;101712.69;5056297;28;45284;-83
2023/09/26 07:39:17;;;;;;;;;1.33;1.33;;;;;26.57;41.98;101713.50;5055946;28;45307;-82
2023/09/26 07:41:43;;;;;;;;;3.00;2.00;;;;;26.57;42.36;101718.84;5055403;28;47126;-82
2023/09/26 07:44:08;;;;;;;;;1.33;1.00;;;;;26.58;42.77;101718.66;5055988;28;45392;-83
2023/09/26 07:46:34;;;;;;;;;3.00;2.00;;;;;26.49;42.13;101722.47;5055864;28;45347;-83
2023/09/26 07:48:59;;;;;;;;;1.67;1.00;;;;;26.47;42.71;101708.47;5056011;28;45392;-83
2023/09/26 07:51:24;;;;;;;;;4.00;1.33;;;;;26.60;42.12;101732.63;5055815;28;46191;-83
2023/09/26 07:53:50;;;;;;;;;3.00;2.00;;;;;26.54;41.94;101724.56;5055972;28;45269;-82
2023/09/26 07:56:15;;;;;;;;;2.00;1.33;;;;;26.41;42.56;101705.50;5055651;28;45229;-83
2023/09/26 07:58:40;;;;;;;;;4.00;2.33;;;;;26.60;42.73;101734.44;5055860;28;45280;-83
2023/09/26 08:01:09;;;;;;;;;2.00;2.00;;;;;26.55;41.88;101724.34;5055584;28;45964;-83
2023/09/26 08:03:37;;;;;;;;;3.33;2.00;;;;;26.43;42.36;101717.84;5055508;28;45432;-83
2023/09/26 08:06:04;;;;;;;;;1.33;1.33;;;;;26.71;42.09;101744.63;5055576;28;45365;-84
2023/09/26 08:08:30;;;;;;;;;1.33;1.33;;;;;26.75;42.39;101737.09;5055463;28;45352;-83
2023/09/26 08:10:56;;;;;;;;;3.00;2.33;;;;;26.77;42.33;101729.72;5055331;28;47206;-83
2023/09/26 08:13:23;;;;;;;;;1.00;1.00;;;;;26.81;42.45;101743.47;5055672;28;45367;-82
2023/09/26 08:15:48;;;;;;;;;2.00;1.33;;;;;26.84;41.73;101733.25;5055616;28;45278;-83
2023/09/26 08:18:14;;;;;;;;;2.00;2.00;;;;;26.87;41.79;101717.88;5055834;28;45268;-82
2023/09/26 08:20:40;;;;;;;;;2.00;2.00;;;;;26.75;41.77;101697.03;5055783;28;47108;-82
2023/09/26 08:23:06;;;;;;;;;2.00;1.67;;;;;26.92;42.30;101721.63;5054846;28;45356;-82
2023/09/26 08:25:34;;;;;;;;;2.00;2.00;;;;;26.92;42.23;101723.47;5055548;28;45397;-82
2023/09/26 08:27:59;;;;;;;;;2.00;2.00;;;;;26.95;41.69;101729.25;5055330;28;45293;-83
2023/09/26 08:30:25;;;;;;;;;1.00;1.00;;;;;26.91;42.17;101708.44;5055185;28;46999;-83
2023/09/26 08:32:50;;;;;;;;;2.00;2.00;;;;;26.98;42.16;101711.19;5070770;28;45722;-83
2023/09/26 08:35:15;;;;;;;;;3.67;1.67;;;;;26.98;42.30;101714.69;5054111;28;45330;-83
2023/09/26 08:37:41;;;;;;;;;2.00;2.00;;;;;26.89;42.11;101711.31;5055066;28;45244;-83
2023/09/26 08:40:13;;;;;;;;;1.00;1.00;;;;;26.94;42.06;101713.41;5055316;28;46297;-82
2023/09/26 08:42:41;;;;;;;;;2.00;2.00;;;;;26.95;42.54;101717.75;5055317;28;45301;-82
2023/09/26 08:45:07;;;;;;;;;1.00;1.00;;;;;26.96;41.76;101717.53;5055124;28;45310;-83
2023/09/26 08:47:38;;;;;;;;;2.00;2.00;;;;;26.95;42.35;101721.25;5054933;28;45380;-82
2023/09/26 08:50:04;;;;;;;;;1.67;1.67;;;;;26.95;42.07;101723.91;5054937;28;46372;-82
2023/09/26 08:52:30;;;;;;;;;1.00;1.00;;;;;26.94;42.08;101719.56;5057321;28;45439;-83
2023/09/26 08:54:55;;;;;;;;;2.00;1.00;;;;;26.82;42.20;101705.09;5058352;28;45386;-83
2023/09/26 08:57:21;;;;;;;;;2.00;1.00;;;;;26.83;42.07;101704.91;5058929;28;45268;-83
2023/09/26 08:59:47;;;;;;;;;2.00;1.00;;;;;26.93;41.65;101723.25;5058547;28;47336;-83
2023/09/26 09:02:12;;;;;;;;;2.33;2.33;;;;;26.90;41.73;101715.66;5058514;28;45586;-82
2023/09/26 09:04:45;;;;;;;;;2.33;2.00;;;;;26.88;42.43;101706.97;5058406;28;45468;-84
2023/09/26 09:07:12;;;;;;;;;4.00;2.33;;;;;26.87;42.36;101708.03;5058066;28;45256;-84
2023/09/26 09:09:56;;;;;;;;;2.67;1.67;;;;;26.91;41.97;101721.78;5058404;28;46421;-83
2023/09/26 09:12:22;;;;;;;;;2.33;2.00;;;;;26.91;42.31;101705.78;5058112;28;45316;-82
2023/09/26 09:14:47;;;;;;;;;2.67;1.67;;;;;26.88;41.89;101696.31;5058206;28;45383;-82
2023/09/26 09:17:12;;;;;;;;;2.00;2.00;;;;;26.90;41.81;101694.28;5058157;28;45559;-82
2023/09/26 09:19:46;;;;;;;;;1.00;1.00;;;;;26.97;42.09;101702.34;5058057;28;46279;-82
2023/09/26 09:22:15;;;;;;;;;5.00;2.00;;;;;26.95;42.14;101699.88;5057744;28;45419;-82
2023/09/26 09:24:41;;;;;;;;;1.00;1.00;;;;;26.98;41.73;101693.31;5058340;28;45406;-83
2023/09/26 09:27:06;;;;;;;;;5.00;2.00;;;;;26.94;41.88;101686.69;5058183;28;45386;-83
2023/09/26 09:29:31;;;;;;;;;2.67;2.67;;;;;27.03;41.82;101701.59;5058441;28;45371;-83
2023/09/26 09:31:57;;;;;;;;;3.00;2.00;;;;;26.83;41.95;101672.84;5058410;28;45517;-83
2023/09/26 09:34:25;;;;;;;;;2.00;2.00;;;;;27.05;41.88;101704.03;5057963;28;45317;-83
2023/09/26 09:36:51;;;;;;;;;1.00;1.00;;;;;27.05;41.66;101702.22;5057484;28;45232;-83
2023/09/26 09:39:19;;;;;;;;;3.33;1.00;;;;;27.02;41.63;101702.59;5057649;28;45410;-82
2023/09/26 09:41:47;;;;;;;;;2.00;2.00;;;;;26.96;41.81;101685.50;5057529;28;45407;-83
2023/09/26 09:44:12;;;;;;;;;3.00;2.00;;;;;26.99;41.78;101681.59;5057908;28;45322;-82
2023/09/26 09:46:38;;;;;;;;;1.00;1.00;;;;;27.03;42.05;101690.91;5058099;28;45348;-82
2023/09/26 09:49:10;;;;;;;;;2.00;2.00;;;;;27.05;42.37;101677.34;5057705;28;45338;-83
2023/09/26 09:51:42;;;;;;;;;2.00;2.00;;;;;27.09;41.64;101680.47;5057640;28;45431;-83
2023/09/26 09:54:12;;;;;;;;;1.00;1.00;;;;;27.11;42.34;101684.59;5057651;28;45388;-83
2023/09/26 09:56:39;;;;;;;;;1.00;1.00;;;;;27.12;42.15;101682.72;5057434;28;45418;-83
2023/09/26 09:59:12;;;;;;;;;3.00;1.00;;;;;27.12;42.10;101677.38;5057441;28;45374;-83
2023/09/26 10:01:43;;;;;;;;;1.00;1.00;;;;;27.02;41.70;101664.38;5057585;28;45371;-83
2023/09/26 10:04:09;;;;;;;;;1.67;1.67;;;;;27.08;42.36;101671.63;5056557;28;45350;-84
2023/09/26 10:06:36;;;;;;;;;1.67;1.67;;;;;26.94;42.09;101655.50;5056503;28;45693;-84
2023/09/26 10:09:03;;;;;;;;;1.67;1.00;;;;;27.03;42.01;101658.03;5057603;28;45357;-84
2023/09/26 10:11:30;;;;;;;;;2.00;2.00;;;;;27.13;41.81;101674.56;5056904;28;45456;-83
2023/09/26 10:13:58;;;;;;;;;1.33;1.00;;;;;27.14;41.59;101684.22;5057385;28;45465;-83
2023/09/26 10:16:25;;;;;;;;;3.00;1.67;;;;;27.03;41.46;101661.53;5057370;28;45392;-83
2023/09/26 10:18:50;;;;;;;;;2.00;2.00;;;;;27.14;42.14;101676.19;5057262;28;45454;-83
2023/09/26 10:21:27;;;;;;;;;1.33;1.33;;;;;27.04;41.98;101665.81;5057351;28;45577;-83
2023/09/26 10:24:04;;;;;;;;;2.00;2.00;;;;;27.15;41.67;101672.50;5057193;28;45409;-83
2023/09/26 10:26:30;;;;;;;;;1.00;1.00;;;;;27.09;42.14;101669.78;5057243;28;45320;-83
2023/09/26 10:28:55;;;;;;;;;1.67;1.67;;;;;27.15;41.60;101671.69;5057005;28;46201;-83
2023/09/26 10:31:22;;;;;;;;;1.00;1.00;;;;;27.07;41.43;101670.78;5058216;28;45263;-84
2023/09/26 10:33:57;;;;;;;;;1.00;1.00;;;;;27.05;41.74;101672.84;5057256;28;45314;-83
2023/09/26 10:36:23;;;;;;;;;3.00;1.00;;;;;27.12;42.06;101688.88;5057209;28;45320;-83
2023/09/26 10:39:02;;;;;;;;;1.00;1.00;;;;;27.12;42.30;101680.03;5058507;28;47006;-83
2023/09/26 10:41:30;;;;;;;;;2.33;1.33;;;;;27.06;41.82;101671.00;5058733;28;45409;-83
2023/09/26 10:43:55;;;;;;;;;1.33;1.33;;;;;27.02;42.04;101661.69;5058913;28;45292;-83
2023/09/26 10:46:21;;;;;;;;;3.00;2.67;;;;;27.10;41.75;101676.75;5057008;28;45364;-83
2023/09/26 10:48:46;;;;;;;;;2.00;2.00;;;;;27.01;41.71;101663.53;5056367;28;46264;-83
2023/09/26 10:51:11;;;;;;;;;2.00;1.00;;;;;27.08;41.62;101668.94;5056787;28;45410;-84
2023/09/26 10:53:37;;;;;;;;;3.00;1.33;;;;;26.96;41.91;101650.78;5057337;28;45660;-84
2023/09/26 10:56:05;;;;;;;;;2.33;2.00;;;;;26.95;41.71;101645.66;5057323;28;45456;-84
2023/09/26 10:58:32;;;;;;;;;1.67;1.00;;;;;27.06;41.51;101665.66;5057219;28;45640;-84
2023/09/26 11:00:58;;;;;;;;;2.00;2.00;;;;;27.10;41.62;101671.41;5057312;28;45370;-84
2023/09/26 11:03:23;;;;;;;;;1.00;1.00;;;;;27.09;41.50;101664.44;5059602;28;45323;-83
2023/09/26 11:05:50;;;;;;;;;1.67;1.67;;;;;27.10;41.49;101666.06;5061008;28;45516;-84
2023/09/26 11:08:16;;;;;;;;;1.00;1.00;;;;;27.06;42.02;101665.66;5060234;28;46749;-83
2023/09/26 11:10:45;;;;;;;;;2.33;2.00;;;;;27.09;41.63;101662.56;5059939;28;45398;-83
2023/09/26 11:13:12;;;;;;;;;1.00;1.00;;;;;27.08;42.03;101658.25;5057374;28;45401;-83
2023/09/26 11:15:37;;;;;;;;;2.67;1.67;;;;;27.01;41.67;101642.19;5056045;28;45378;-83
2023/09/26 11:18:03;;;;;;;;;5.00;2.00;;;;;27.07;42.09;101660.09;5055778;28;46284;-83
2023/09/26 11:20:28;;;;;;;;;1.00;1.00;;;;;27.07;42.16;101654.75;5056457;28;45256;-83